LFBC 220630Z AUTO VRB02KT CAVOK 14/13 Q1020 NOSIG
LFBD 220630Z AUTO VRB02KT 7000 2200 NSC 14/13 Q1020 NOSIG